Time;durP1;ratioP1;P1;durP2;ratioP2;P2;SDS_P1;SDS_P2;PMS_P1;PMS_P2;Temp;Humidity;BMP_temperature;BMP_pressure;BME280_temperature;BME280_humidity;BME280_pressure;Samples;Min_cycle;Max_cycle;Signal;HPM_P1;HPM_P2
2024/01/11 00:02:14;;;;;;;10.45;6.88;;;;;;;;;;5040391;28;20063;-60
2024/01/11 00:04:41;;;;;;;8.48;5.90;;;;;;;;;;5043420;28;20167;-59
2024/01/11 00:07:07;;;;;;;10.32;5.63;;;;;;;;;;5043716;28;20525;-60
2024/01/11 00:09:33;;;;;;;9.25;5.95;;;;;;;;;;5042361;28;20259;-60
2024/01/11 00:11:59;;;;;;;8.32;5.18;;;;;;;;;;5044745;28;20112;-60
2024/01/11 00:14:25;;;;;;;8.15;5.45;;;;;;;;;;5039047;28;20036;-60
2024/01/11 00:16:52;;;;;;;7.28;4.63;;;;;;;;;;5039666;28;20064;-60
2024/01/11 00:19:18;;;;;;;8.48;4.88;;;;;;;;;;5022887;28;20410;-60
2024/01/11 00:21:44;;;;;;;7.53;4.43;;;;;;;;;;5040449;28;20094;-59
2024/01/11 00:24:10;;;;;;;7.18;4.18;;;;;;;;;;5038511;28;20072;-59
2024/01/11 00:26:36;;;;;;;7.70;4.82;;;;;;;;;;5036429;28;20037;-60
2024/01/11 00:29:02;;;;;;;9.68;5.15;;;;;;;;;;5040744;28;20040;-59
2024/01/11 00:31:28;;;;;;;8.52;4.95;;;;;;;;;;5034835;28;20041;-60
2024/01/11 00:33:54;;;;;;;7.88;5.15;;;;;;;;;;5038386;28;20217;-60
2024/01/11 00:36:20;;;;;;;9.10;6.05;;;;;;;;;;5036261;28;20037;-60
2024/01/11 00:38:46;;;;;;;9.30;5.72;;;;;;;;;;5039713;28;20049;-60
2024/01/11 00:41:12;;;;;;;9.35;5.82;;;;;;;;;;5036890;28;20124;-60
2024/01/11 00:43:38;;;;;;;9.43;5.43;;;;;;;;;;5038316;28;20041;-60
2024/01/11 00:46:04;;;;;;;9.40;5.03;;;;;;;;;;5039303;28;20326;-60
2024/01/11 00:48:30;;;;;;;8.05;5.50;;;;;;;;;;5041668;28;20079;-60
2024/01/11 00:50:56;;;;;;;7.22;4.63;;;;;;;;;;5039629;28;20033;-60
2024/01/11 00:53:22;;;;;;;10.40;6.28;;;;;;;;;;5039783;28;20076;-60
2024/01/11 00:55:48;;;;;;;11.75;7.38;;;;;;;;;;5040032;28;20128;-59
2024/01/11 00:58:14;;;;;;;13.73;7.65;;;;;;;;;;5040633;28;20356;-60
2024/01/11 01:00:40;;;;;;;13.55;7.65;;;;;;;;;;5034015;28;20069;-59
2024/01/11 01:03:06;;;;;;;12.50;8.38;;;;;;;;;;5041663;28;20067;-60
2024/01/11 01:05:32;;;;;;;13.15;7.45;;;;;;;;;;5035511;28;20049;-60
2024/01/11 01:07:58;;;;;;;12.15;7.30;;;;;;;;;;5040494;28;20116;-60
2024/01/11 01:10:24;;;;;;;13.70;8.70;;;;;;;;;;5042043;28;20589;-60
2024/01/11 01:12:50;;;;;;;13.63;8.13;;;;;;;;;;5040614;28;20116;-60
2024/01/11 01:15:16;;;;;;;13.95;8.48;;;;;;;;;;5042515;28;20461;-60
2024/01/11 01:17:42;;;;;;;12.90;7.28;;;;;;;;;;5038688;28;20045;-60
2024/01/11 01:20:09;;;;;;;15.88;8.55;;;;;;;;;;5038713;28;20041;-59
2024/01/11 01:22:34;;;;;;;14.30;8.80;;;;;;;;;;5040212;28;20120;-59
2024/01/11 01:25:01;;;;;;;14.23;8.35;;;;;;;;;;5036004;28;20604;-60
2024/01/11 01:27:27;;;;;;;12.80;7.65;;;;;;;;;;5034541;28;20127;-60
2024/01/11 01:29:53;;;;;;;14.57;8.15;;;;;;;;;;5033005;28;20129;-59
2024/01/11 01:32:19;;;;;;;14.43;8.43;;;;;;;;;;5036013;28;20636;-59
2024/01/11 01:34:45;;;;;;;15.70;9.77;;;;;;;;;;5038782;28;20095;-60
2024/01/11 01:37:11;;;;;;;15.70;8.38;;;;;;;;;;5037639;28;20418;-59
2024/01/11 01:39:40;;;;;;;14.15;7.95;;;;;;;;;;5034144;28;20045;-60
2024/01/11 01:42:06;;;;;;;13.43;7.15;;;;;;;;;;5034945;28;20032;-59
2024/01/11 01:44:33;;;;;;;12.45;6.68;;;;;;;;;;5036526;28;20517;-60
2024/01/11 01:46:59;;;;;;;12.70;6.97;;;;;;;;;;5038330;28;20071;-59
2024/01/11 01:49:25;;;;;;;11.13;6.32;;;;;;;;;;5033108;28;20762;-60
2024/01/11 01:51:53;;;;;;;9.02;5.78;;;;;;;;;;5035707;28;20079;-60
2024/01/11 01:54:20;;;;;;;10.77;6.50;;;;;;;;;;5042886;28;20195;-60
2024/01/11 01:56:46;;;;;;;12.18;7.00;;;;;;;;;;5038576;28;20052;-60
2024/01/11 01:59:12;;;;;;;13.55;8.13;;;;;;;;;;5037080;28;20038;-60
2024/01/11 02:01:38;;;;;;;17.10;9.07;;;;;;;;;;5035702;28;20041;-60
2024/01/11 02:04:04;;;;;;;20.05;11.13;;;;;;;;;;5039043;28;20132;-59
2024/01/11 02:06:32;;;;;;;16.48;10.13;;;;;;;;;;5041562;28;20037;-60
2024/01/11 02:08:59;;;;;;;17.25;8.82;;;;;;;;;;5039400;28;20053;-60
2024/01/11 02:11:25;;;;;;;14.00;8.32;;;;;;;;;;5040866;28;20040;-59
2024/01/11 02:13:51;;;;;;;16.90;8.70;;;;;;;;;;5039347;28;20037;-60
2024/01/11 02:16:17;;;;;;;14.57;7.93;;;;;;;;;;5040486;28;20033;-60
2024/01/11 02:18:43;;;;;;;15.15;8.27;;;;;;;;;;5038573;28;20407;-60
2024/01/11 02:21:10;;;;;;;13.88;8.02;;;;;;;;;;5038172;28;20047;-59
2024/01/11 02:23:41;;;;;;;13.45;7.78;;;;;;;;;;5038472;28;20373;-60
2024/01/11 02:26:07;;;;;;;16.77;8.90;;;;;;;;;;5039251;28;20041;-60
2024/01/11 02:28:33;;;;;;;19.02;9.82;;;;;;;;;;5035650;28;20041;-59
2024/01/11 02:31:00;;;;;;;18.75;10.68;;;;;;;;;;5035297;28;20037;-60
2024/01/11 02:33:26;;;;;;;19.52;11.18;;;;;;;;;;5036439;28;20324;-60
2024/01/11 02:35:52;;;;;;;18.77;10.75;;;;;;;;;;5034072;28;20478;-59
2024/01/11 02:38:18;;;;;;;18.83;10.32;;;;;;;;;;5032567;28;20045;-59
2024/01/11 02:40:45;;;;;;;16.85;10.50;;;;;;;;;;5033490;28;20043;-59
2024/01/11 02:43:11;;;;;;;18.23;11.45;;;;;;;;;;5029032;28;20109;-60
2024/01/11 02:45:37;;;;;;;16.73;9.75;;;;;;;;;;5035600;28;20100;-60
2024/01/11 02:48:03;;;;;;;17.35;10.20;;;;;;;;;;5030170;28;20431;-60
2024/01/11 02:50:30;;;;;;;16.95;9.93;;;;;;;;;;5035760;28;20040;-60
2024/01/11 02:52:55;;;;;;;18.23;10.40;;;;;;;;;;5023510;28;20077;-60
2024/01/11 02:55:22;;;;;;;15.23;9.43;;;;;;;;;;5038940;28;20504;-59
2024/01/11 02:57:47;;;;;;;14.90;8.93;;;;;;;;;;5034463;28;20467;-59
2024/01/11 03:00:14;;;;;;;20.23;10.77;;;;;;;;;;5041943;28;20091;-59
2024/01/11 03:02:40;;;;;;;21.13;11.57;;;;;;;;;;5037574;28;20103;-60
2024/01/11 03:05:06;;;;;;;19.20;11.27;;;;;;;;;;5040110;28;20054;-59
2024/01/11 03:07:32;;;;;;;19.92;11.05;;;;;;;;;;5039800;28;20049;-60
2024/01/11 03:09:58;;;;;;;21.15;11.73;;;;;;;;;;5040299;28;20052;-59
2024/01/11 03:12:26;;;;;;;18.80;11.45;;;;;;;;;;5040017;28;20041;-59
2024/01/11 03:14:52;;;;;;;21.80;12.35;;;;;;;;;;5037052;28;20046;-59
2024/01/11 03:17:18;;;;;;;20.80;11.48;;;;;;;;;;5038653;28;20060;-59
2024/01/11 03:19:44;;;;;;;18.90;11.07;;;;;;;;;;5038290;28;20037;-59
2024/01/11 03:22:09;;;;;;;18.27;9.77;;;;;;;;;;5037988;28;20036;-59
2024/01/11 03:24:39;;;;;;;17.60;9.90;;;;;;;;;;5037184;28;20299;-60
2024/01/11 03:27:05;;;;;;;19.75;9.95;;;;;;;;;;5039665;28;20403;-59
2024/01/11 03:29:31;;;;;;;20.58;10.50;;;;;;;;;;5018288;28;20327;-59
2024/01/11 03:31:57;;;;;;;21.25;10.73;;;;;;;;;;5033757;28;20468;-59
2024/01/11 03:34:23;;;;;;;18.60;10.40;;;;;;;;;;5034682;28;20041;-59
2024/01/11 03:36:49;;;;;;;18.15;11.05;;;;;;;;;;5033253;28;20038;-60
2024/01/11 03:39:15;;;;;;;18.70;9.95;;;;;;;;;;5032766;28;20080;-60
2024/01/11 03:41:45;;;;;;;19.85;11.02;;;;;;;;;;5030670;28;20506;-59
2024/01/11 03:44:11;;;;;;;19.30;10.98;;;;;;;;;;5031196;28;20099;-59
2024/01/11 03:46:37;;;;;;;16.92;9.75;;;;;;;;;;5030870;28;20041;-59
2024/01/11 03:49:03;;;;;;;16.35;9.25;;;;;;;;;;5029701;28;20041;-60
2024/01/11 03:51:29;;;;;;;18.17;10.30;;;;;;;;;;5035453;28;20079;-59
2024/01/11 03:53:55;;;;;;;17.38;10.18;;;;;;;;;;5032443;28;20041;-60
2024/01/11 03:56:21;;;;;;;15.55;8.90;;;;;;;;;;5034943;28;20040;-60
2024/01/11 03:58:47;;;;;;;17.58;9.68;;;;;;;;;;5037235;28;20041;-59
2024/01/11 04:01:13;;;;;;;12.88;8.05;;;;;;;;;;5035839;28;20041;-60
2024/01/11 04:03:39;;;;;;;15.80;8.63;;;;;;;;;;5021085;28;20115;-59
2024/01/11 04:06:06;;;;;;;15.77;8.85;;;;;;;;;;5038709;28;20029;-59
2024/01/11 04:08:32;;;;;;;17.45;9.32;;;;;;;;;;5037801;28;20065;-59
2024/01/11 04:10:58;;;;;;;13.65;8.25;;;;;;;;;;5039156;28;20055;-59
2024/01/11 04:13:24;;;;;;;12.80;7.80;;;;;;;;;;5033869;28;20045;-59
2024/01/11 04:15:50;;;;;;;13.95;7.88;;;;;;;;;;5034321;28;20082;-60
2024/01/11 04:18:16;;;;;;;13.18;8.13;;;;;;;;;;5030787;28;20068;-59
2024/01/11 04:20:42;;;;;;;11.88;6.78;;;;;;;;;;5036665;28;20128;-60
2024/01/11 04:23:08;;;;;;;12.13;7.47;;;;;;;;;;5037286;28;20075;-59
2024/01/11 04:25:35;;;;;;;12.15;7.20;;;;;;;;;;5031577;28;20076;-59
2024/01/11 04:28:01;;;;;;;14.23;7.43;;;;;;;;;;5036151;28;20038;-59
2024/01/11 04:30:27;;;;;;;12.02;7.07;;;;;;;;;;5034912;28;20115;-59
2024/01/11 04:32:53;;;;;;;11.98;7.00;;;;;;;;;;5032884;28;20664;-59
2024/01/11 04:35:19;;;;;;;10.02;6.55;;;;;;;;;;5036656;28;20043;-60
2024/01/11 04:37:45;;;;;;;12.38;6.60;;;;;;;;;;5034746;28;20057;-60
2024/01/11 04:40:11;;;;;;;10.40;6.10;;;;;;;;;;5032639;28;20045;-60
2024/01/11 04:42:37;;;;;;;12.25;6.90;;;;;;;;;;5035400;28;20075;-59
2024/01/11 04:45:04;;;;;;;10.05;5.80;;;;;;;;;;5034185;28;20047;-60
2024/01/11 04:47:32;;;;;;;8.93;5.40;;;;;;;;;;5033954;28;20338;-60
2024/01/11 04:49:58;;;;;;;10.27;6.15;;;;;;;;;;5035525;28;20489;-59
2024/01/11 04:52:24;;;;;;;9.65;5.47;;;;;;;;;;5033652;28;20046;-59
2024/01/11 04:54:50;;;;;;;10.02;5.18;;;;;;;;;;5034576;28;20373;-59
2024/01/11 04:57:16;;;;;;;7.28;5.20;;;;;;;;;;5032809;28;20053;-60
2024/01/11 04:59:42;;;;;;;10.40;5.57;;;;;;;;;;5031764;28;20593;-59
2024/01/11 05:02:08;;;;;;;9.63;6.38;;;;;;;;;;5038059;28;20037;-59
2024/01/11 05:04:34;;;;;;;10.73;6.10;;;;;;;;;;5039266;28;20480;-59
2024/01/11 05:07:00;;;;;;;11.48;6.80;;;;;;;;;;5040880;28;20399;-60
2024/01/11 05:09:26;;;;;;;14.25;8.15;;;;;;;;;;5036287;28;20504;-60
2024/01/11 05:11:52;;;;;;;15.70;9.35;;;;;;;;;;5035560;28;20036;-60
2024/01/11 05:14:18;;;;;;;14.77;8.60;;;;;;;;;;5037278;28;20495;-59
2024/01/11 05:16:44;;;;;;;15.75;8.73;;;;;;;;;;5038542;28;20076;-59
2024/01/11 05:19:10;;;;;;;14.95;8.25;;;;;;;;;;5037889;28;20404;-59
2024/01/11 05:21:36;;;;;;;14.93;7.93;;;;;;;;;;5015400;28;20077;-59
2024/01/11 05:24:02;;;;;;;14.90;8.40;;;;;;;;;;5037178;28;20071;-60
2024/01/11 05:26:28;;;;;;;14.32;8.32;;;;;;;;;;5038744;28;20767;-60
2024/01/11 05:28:54;;;;;;;14.40;8.07;;;;;;;;;;5035545;28;20049;-60
2024/01/11 05:31:20;;;;;;;15.15;7.88;;;;;;;;;;5037422;28;20124;-60
2024/01/11 05:33:46;;;;;;;14.40;8.73;;;;;;;;;;5036111;28;20471;-59
2024/01/11 05:36:12;;;;;;;13.50;7.75;;;;;;;;;;5039222;28;20041;-60
2024/01/11 05:38:39;;;;;;;13.07;7.32;;;;;;;;;;5036912;28;20198;-59
2024/01/11 05:41:05;;;;;;;13.10;7.57;;;;;;;;;;5037782;28;20437;-60
2024/01/11 05:43:31;;;;;;;12.57;7.97;;;;;;;;;;5035682;28;20041;-59
2024/01/11 05:45:57;;;;;;;12.70;7.47;;;;;;;;;;5036310;28;20053;-59
2024/01/11 05:48:23;;;;;;;12.18;7.03;;;;;;;;;;5037185;28;20045;-60
2024/01/11 05:50:49;;;;;;;12.10;6.97;;;;;;;;;;5035957;28;20071;-59
2024/01/11 05:53:15;;;;;;;13.13;7.75;;;;;;;;;;5034961;28;20109;-60
2024/01/11 05:55:41;;;;;;;9.73;6.00;;;;;;;;;;5033245;28;20139;-59
2024/01/11 05:58:07;;;;;;;10.32;6.07;;;;;;;;;;5037999;28;20136;-59
2024/01/11 06:00:33;;;;;;;12.07;7.15;;;;;;;;;;5033413;28;20123;-59
2024/01/11 06:02:59;;;;;;;11.60;6.80;;;;;;;;;;5040849;28;20068;-59
2024/01/11 06:05:26;;;;;;;11.70;6.45;;;;;;;;;;5034300;28;20086;-59
2024/01/11 06:07:52;;;;;;;12.80;6.43;;;;;;;;;;5036862;28;20096;-60
2024/01/11 06:10:18;;;;;;;10.23;5.88;;;;;;;;;;5041066;28;20087;-60
2024/01/11 06:12:43;;;;;;;11.00;6.28;;;;;;;;;;5019945;28;20406;-60
2024/01/11 06:15:10;;;;;;;10.13;5.90;;;;;;;;;;5030865;28;20095;-60
2024/01/11 06:17:36;;;;;;;12.05;6.82;;;;;;;;;;5037222;28;20095;-60
2024/01/11 06:20:03;;;;;;;8.77;5.78;;;;;;;;;;5038983;28;20045;-60
2024/01/11 06:22:29;;;;;;;11.27;7.05;;;;;;;;;;5032792;28;20056;-60
2024/01/11 06:24:55;;;;;;;11.73;6.38;;;;;;;;;;5036971;28;20403;-60
2024/01/11 06:27:21;;;;;;;9.80;5.82;;;;;;;;;;5039815;28;20043;-59
2024/01/11 06:29:47;;;;;;;12.30;8.15;;;;;;;;;;5033047;28;20453;-59
2024/01/11 06:32:13;;;;;;;16.20;9.85;;;;;;;;;;5040962;28;20075;-61
2024/01/11 06:34:41;;;;;;;15.75;8.65;;;;;;;;;;5036224;28;20053;-60
2024/01/11 06:37:07;;;;;;;14.02;8.27;;;;;;;;;;5039322;28;20209;-60
2024/01/11 06:39:33;;;;;;;11.38;7.43;;;;;;;;;;5037115;28;20296;-61
2024/01/11 06:41:59;;;;;;;10.85;6.47;;;;;;;;;;5037538;28;20088;-60
2024/01/11 06:44:25;;;;;;;13.68;7.18;;;;;;;;;;5038136;28;20114;-61
2024/01/11 06:46:51;;;;;;;14.25;8.20;;;;;;;;;;5034569;28;20037;-61
2024/01/11 06:49:17;;;;;;;11.85;7.47;;;;;;;;;;5031492;28;20068;-58
2024/01/11 06:51:43;;;;;;;11.82;6.38;;;;;;;;;;5034523;28;20099;-58
2024/01/11 06:54:09;;;;;;;14.07;7.63;;;;;;;;;;5032746;28;20721;-58
2024/01/11 06:56:35;;;;;;;11.50;6.68;;;;;;;;;;5034733;28;20121;-58
2024/01/11 06:59:02;;;;;;;10.63;6.45;;;;;;;;;;5033877;28;20051;-58
2024/01/11 07:01:28;;;;;;;11.43;6.88;;;;;;;;;;5027878;28;20577;-61
2024/01/11 07:03:54;;;;;;;9.45;5.78;;;;;;;;;;5034978;28;20124;-59
2024/01/11 07:06:20;;;;;;;8.80;5.10;;;;;;;;;;5039137;28;20112;-58
2024/01/11 07:08:46;;;;;;;8.07;4.13;;;;;;;;;;5034819;28;20107;-58
2024/01/11 07:11:12;;;;;;;8.85;5.03;;;;;;;;;;5038576;28;20037;-58
2024/01/11 07:13:38;;;;;;;7.25;4.70;;;;;;;;;;5032585;28;20045;-58
2024/01/11 07:16:04;;;;;;;7.28;4.63;;;;;;;;;;5032829;28;20112;-58
2024/01/11 07:18:31;;;;;;;9.93;5.22;;;;;;;;;;5034939;28;20108;-58
2024/01/11 07:20:58;;;;;;;11.68;6.35;;;;;;;;;;5038427;28;20048;-58
2024/01/11 07:23:24;;;;;;;10.90;6.38;;;;;;;;;;5020813;28;20053;-58
2024/01/11 07:25:50;;;;;;;11.20;6.30;;;;;;;;;;5038032;28;20041;-58
2024/01/11 07:28:17;;;;;;;11.35;6.70;;;;;;;;;;5039748;28;20103;-58
2024/01/11 07:30:43;;;;;;;12.23;7.05;;;;;;;;;;5034280;28;20033;-61
2024/01/11 07:33:09;;;;;;;11.60;7.07;;;;;;;;;;5030630;28;20041;-60
2024/01/11 07:35:35;;;;;;;17.25;10.13;;;;;;;;;;5035572;28;20523;-60
2024/01/11 07:38:01;;;;;;;22.50;12.07;;;;;;;;;;5032815;28;20044;-60
2024/01/11 07:40:28;;;;;;;20.92;12.75;;;;;;;;;;5033620;28;20060;-60
2024/01/11 07:42:54;;;;;;;21.50;12.90;;;;;;;;;;5040558;28;20056;-60
2024/01/11 07:45:20;;;;;;;20.80;11.18;;;;;;;;;;5031345;28;20042;-60
2024/01/11 07:47:46;;;;;;;17.52;10.60;;;;;;;;;;5028218;28;20473;-60
2024/01/11 07:50:13;;;;;;;15.05;9.57;;;;;;;;;;5035774;28;20068;-62
2024/01/11 07:52:42;;;;;;;14.50;8.88;;;;;;;;;;5028726;28;20033;-60
2024/01/11 07:55:11;;;;;;;14.88;8.98;;;;;;;;;;5036113;28;20497;-57
2024/01/11 07:57:40;;;;;;;14.05;8.60;;;;;;;;;;5035766;28;20059;-59
2024/01/11 08:00:06;;;;;;;12.95;7.75;;;;;;;;;;5038546;28;20044;-57
2024/01/11 08:02:33;;;;;;;11.18;6.53;;;;;;;;;;5039878;28;20140;-60
2024/01/11 08:05:02;;;;;;;9.07;5.68;;;;;;;;;;5042279;28;20504;-60
2024/01/11 08:07:28;;;;;;;9.05;5.65;;;;;;;;;;5039039;28;20498;-61
2024/01/11 08:09:55;;;;;;;12.30;6.90;;;;;;;;;;5043649;28;20118;-60
2024/01/11 08:12:21;;;;;;;11.43;6.65;;;;;;;;;;5042439;28;20094;-60
2024/01/11 08:14:47;;;;;;;9.60;5.93;;;;;;;;;;5039880;28;20037;-61
2024/01/11 08:17:14;;;;;;;8.35;5.55;;;;;;;;;;5042758;28;20077;-62
2024/01/11 08:19:40;;;;;;;7.10;4.95;;;;;;;;;;5038123;28;20718;-63
2024/01/11 08:22:06;;;;;;;6.97;4.78;;;;;;;;;;5023213;28;20297;-61
2024/01/11 08:24:34;;;;;;;6.50;4.53;;;;;;;;;;5039294;28;20044;-61
2024/01/11 08:27:00;;;;;;;6.70;4.30;;;;;;;;;;5045376;28;20060;-61
2024/01/11 08:29:27;;;;;;;5.55;3.85;;;;;;;;;;5048445;28;20483;-60
2024/01/11 08:31:56;;;;;;;6.75;4.35;;;;;;;;;;5048733;28;20091;-60
2024/01/11 08:34:23;;;;;;;7.03;4.30;;;;;;;;;;5046044;28;20376;-60
2024/01/11 08:36:49;;;;;;;7.85;5.47;;;;;;;;;;5049720;28;20041;-59
2024/01/11 08:39:15;;;;;;;8.02;5.53;;;;;;;;;;5048580;28;20764;-60
2024/01/11 08:41:41;;;;;;;9.57;5.85;;;;;;;;;;5048096;28;20178;-58
2024/01/11 08:44:07;;;;;;;12.80;7.05;;;;;;;;;;5046514;28;20032;-62
2024/01/11 08:46:33;;;;;;;13.85;7.47;;;;;;;;;;5043760;28;20047;-59
2024/01/11 08:49:03;;;;;;;14.00;8.90;;;;;;;;;;5043728;28;20640;-59
2024/01/11 08:51:29;;;;;;;13.82;8.00;;;;;;;;;;5044081;28;20523;-59
2024/01/11 08:53:55;;;;;;;10.52;7.10;;;;;;;;;;5042455;28;20564;-59
2024/01/11 08:56:21;;;;;;;11.15;7.05;;;;;;;;;;5026160;28;20392;-59
2024/01/11 08:58:48;;;;;;;11.05;7.15;;;;;;;;;;5034606;28;20509;-59
2024/01/11 09:01:14;;;;;;;11.00;7.63;;;;;;;;;;5029331;28;20049;-59
2024/01/11 09:03:40;;;;;;;11.48;8.52;;;;;;;;;;5039440;28;20076;-59
2024/01/11 09:06:06;;;;;;;10.57;6.78;;;;;;;;;;5047745;28;20516;-59
2024/01/11 09:08:32;;;;;;;9.52;5.90;;;;;;;;;;5046558;28;20575;-59
2024/01/11 09:10:59;;;;;;;8.10;5.35;;;;;;;;;;5042824;28;20462;-59
2024/01/11 09:13:28;;;;;;;9.55;5.72;;;;;;;;;;5047246;28;20040;-58
2024/01/11 09:15:54;;;;;;;8.57;5.68;;;;;;;;;;5047232;28;20028;-58
2024/01/11 09:18:21;;;;;;;7.00;4.43;;;;;;;;;;5045948;28;20047;-59
2024/01/11 09:20:47;;;;;;;6.38;4.53;;;;;;;;;;5043765;28;20524;-59
2024/01/11 09:23:13;;;;;;;12.80;7.20;;;;;;;;;;5043392;28;20052;-59
2024/01/11 09:25:40;;;;;;;9.18;6.50;;;;;;;;;;5042791;28;20037;-61
2024/01/11 09:28:06;;;;;;;10.10;6.80;;;;;;;;;;5044748;28;20056;-61
2024/01/11 09:30:32;;;;;;;13.73;8.60;;;;;;;;;;5042340;28;20041;-60
2024/01/11 09:32:58;;;;;;;15.15;8.95;;;;;;;;;;5044927;28;20068;-59
2024/01/11 09:35:24;;;;;;;13.02;8.88;;;;;;;;;;5045809;28;20134;-59
2024/01/11 09:37:50;;;;;;;12.00;8.35;;;;;;;;;;5046902;28;20522;-59
2024/01/11 09:40:17;;;;;;;13.23;8.85;;;;;;;;;;5046895;28;20045;-59
2024/01/11 09:42:44;;;;;;;14.27;9.32;;;;;;;;;;5042446;28;20037;-59
2024/01/11 09:45:13;;;;;;;12.52;8.50;;;;;;;;;;5041401;28;20033;-59
2024/01/11 09:47:39;;;;;;;12.32;8.13;;;;;;;;;;5047622;28;20059;-60
2024/01/11 09:50:06;;;;;;;10.20;7.20;;;;;;;;;;5031893;28;20041;-59
2024/01/11 09:52:32;;;;;;;9.85;7.40;;;;;;;;;;5041552;28;20246;-59
2024/01/11 09:54:58;;;;;;;10.30;6.65;;;;;;;;;;5030923;28;20540;-59
2024/01/11 09:57:25;;;;;;;10.50;6.78;;;;;;;;;;5035308;28;20036;-60
2024/01/11 09:59:55;;;;;;;9.57;6.60;;;;;;;;;;5042487;28;20041;-60
2024/01/11 10:02:22;;;;;;;11.00;8.02;;;;;;;;;;5040888;28;20047;-59
2024/01/11 10:04:48;;;;;;;11.20;7.18;;;;;;;;;;5042529;28;20047;-59
2024/01/11 10:07:15;;;;;;;11.13;7.32;;;;;;;;;;5042773;28;20091;-59
2024/01/11 10:09:41;;;;;;;10.80;7.35;;;;;;;;;;5041386;28;20128;-59
2024/01/11 10:12:07;;;;;;;11.50;6.65;;;;;;;;;;5042045;28;20087;-59
2024/01/11 10:14:33;;;;;;;11.30;7.95;;;;;;;;;;5044898;28;20091;-59
2024/01/11 10:17:00;;;;;;;10.23;7.20;;;;;;;;;;5044046;28;20518;-59
2024/01/11 10:19:26;;;;;;;11.60;8.05;;;;;;;;;;5041538;28;20063;-59
2024/01/11 10:21:52;;;;;;;15.77;10.23;;;;;;;;;;5043488;28;20471;-60
2024/01/11 10:24:23;;;;;;;14.52;10.30;;;;;;;;;;5045220;28;20055;-59
2024/01/11 10:26:49;;;;;;;16.73;10.55;;;;;;;;;;5045295;28;20040;-59
2024/01/11 10:29:15;;;;;;;14.52;9.77;;;;;;;;;;5043544;28;20045;-59
2024/01/11 10:31:41;;;;;;;13.45;9.25;;;;;;;;;;5044274;28;20421;-59
2024/01/11 10:34:07;;;;;;;13.73;9.27;;;;;;;;;;5041145;28;20605;-60
2024/01/11 10:36:33;;;;;;;11.75;7.53;;;;;;;;;;5044900;28;20120;-60
2024/01/11 10:39:04;;;;;;;9.32;7.40;;;;;;;;;;5036945;28;20449;-60
2024/01/11 10:41:33;;;;;;;8.23;6.32;;;;;;;;;;5045849;28;20049;-60
2024/01/11 10:44:00;;;;;;;11.40;7.28;;;;;;;;;;5046167;28;20044;-59
2024/01/11 10:46:26;;;;;;;11.30;7.57;;;;;;;;;;5042891;28;20032;-60
2024/01/11 10:48:56;;;;;;;16.95;10.23;;;;;;;;;;5043223;28;20041;-60
2024/01/11 10:51:24;;;;;;;15.88;10.18;;;;;;;;;;5044890;28;20037;-60
2024/01/11 10:53:51;;;;;;;13.90;9.15;;;;;;;;;;5043534;28;20041;-60
2024/01/11 10:56:17;;;;;;;11.95;8.20;;;;;;;;;;5043032;28;20490;-60
2024/01/11 10:58:43;;;;;;;10.63;7.95;;;;;;;;;;5041532;28;20503;-60
2024/01/11 11:01:10;;;;;;;11.85;8.10;;;;;;;;;;5041287;28;20120;-59
2024/01/11 11:03:37;;;;;;;10.98;7.47;;;;;;;;;;5044747;28;20143;-60
2024/01/11 11:06:05;;;;;;;10.90;7.70;;;;;;;;;;5045634;28;20048;-62
2024/01/11 11:08:31;;;;;;;13.60;8.80;;;;;;;;;;5044875;28;20122;-59
2024/01/11 11:10:58;;;;;;;13.07;8.15;;;;;;;;;;5045443;28;20068;-61
2024/01/11 11:13:25;;;;;;;10.60;7.50;;;;;;;;;;5043370;28;20033;-61
2024/01/11 11:15:52;;;;;;;11.80;7.75;;;;;;;;;;5042898;28;20032;-59
2024/01/11 11:18:18;;;;;;;12.85;9.07;;;;;;;;;;5045415;28;20041;-59
2024/01/11 11:20:45;;;;;;;13.30;8.55;;;;;;;;;;5044600;28;20072;-59
2024/01/11 11:23:12;;;;;;;14.73;9.15;;;;;;;;;;5045212;28;20048;-59
2024/01/11 11:25:40;;;;;;;15.85;9.85;;;;;;;;;;5032686;28;20052;-58
2024/01/11 11:28:06;;;;;;;13.32;8.98;;;;;;;;;;5038070;28;20041;-59
2024/01/11 11:30:33;;;;;;;13.88;8.35;;;;;;;;;;5042400;28;20044;-60
2024/01/11 11:33:07;;;;;;;12.75;8.95;;;;;;;;;;5044881;28;20498;-61
2024/01/11 11:35:33;;;;;;;14.73;9.40;;;;;;;;;;5043469;28;20900;-61
2024/01/11 11:37:59;;;;;;;13.35;9.25;;;;;;;;;;5045309;28;20049;-60
2024/01/11 11:40:46;;;;;;;14.70;9.73;;;;;;;;;;5045294;28;20095;-61
2024/01/11 11:43:13;;;;;;;13.57;10.00;;;;;;;;;;5044467;28;20495;-61
2024/01/11 11:45:41;;;;;;;12.23;8.43;;;;;;;;;;5045886;28;20049;-61
2024/01/11 11:48:26;;;;;;;12.88;8.55;;;;;;;;;;5045635;28;20045;-61
2024/01/11 11:51:01;;;;;;;11.07;7.28;;;;;;;;;;5044774;28;20068;-61
2024/01/11 11:53:30;;;;;;;9.98;6.55;;;;;;;;;;5017469;28;20048;-61
2024/01/11 11:55:57;;;;;;;10.30;6.97;;;;;;;;;;5049615;28;20047;-61
2024/01/11 11:58:23;;;;;;;9.95;6.90;;;;;;;;;;5045812;28;20052;-60
2024/01/11 12:00:49;;;;;;;11.93;8.20;;;;;;;;;;5049402;28;20041;-61
2024/01/11 12:03:17;;;;;;;12.85;8.18;;;;;;;;;;5047128;28;20047;-61
2024/01/11 12:05:43;;;;;;;12.02;8.77;;;;;;;;;;5049231;28;20067;-61
2024/01/11 12:08:09;;;;;;;9.57;7.57;;;;;;;;;;5046648;28;20054;-61
2024/01/11 12:10:36;;;;;;;11.00;7.85;;;;;;;;;;5046128;28;20118;-61
2024/01/11 12:13:02;;;;;;;17.35;9.50;;;;;;;;;;5038408;28;20044;-61
2024/01/11 12:15:29;;;;;;;10.35;7.47;;;;;;;;;;5042183;28;20421;-61
2024/01/11 12:17:58;;;;;;;11.55;7.60;;;;;;;;;;5047856;28;20033;-61
2024/01/11 12:20:24;;;;;;;9.70;6.55;;;;;;;;;;5042447;28;20395;-61
2024/01/11 12:22:50;;;;;;;7.65;6.25;;;;;;;;;;5046109;28;20112;-61
2024/01/11 12:25:16;;;;;;;10.48;7.15;;;;;;;;;;5033728;28;20053;-59
2024/01/11 12:27:42;;;;;;;8.68;6.50;;;;;;;;;;5045093;28;20052;-60
2024/01/11 12:30:10;;;;;;;11.20;6.78;;;;;;;;;;5040556;28;20398;-59
2024/01/11 12:32:37;;;;;;;8.93;6.20;;;;;;;;;;5048371;28;20139;-59
2024/01/11 12:35:03;;;;;;;12.75;8.48;;;;;;;;;;5048637;28;20053;-59
2024/01/11 12:37:30;;;;;;;15.55;9.55;;;;;;;;;;5048882;28;20132;-59
2024/01/11 12:39:59;;;;;;;13.15;9.27;;;;;;;;;;5047902;28;20045;-59
2024/01/11 12:42:27;;;;;;;15.93;8.88;;;;;;;;;;5048560;28;20391;-59
2024/01/11 12:44:53;;;;;;;13.95;9.43;;;;;;;;;;5048929;28;20076;-59
2024/01/11 12:47:19;;;;;;;13.98;9.52;;;;;;;;;;5047688;28;20041;-59
2024/01/11 12:49:46;;;;;;;11.75;8.02;;;;;;;;;;5048819;28;20044;-59
2024/01/11 12:52:21;;;;;;;10.98;8.05;;;;;;;;;;5047553;28;20491;-59
2024/01/11 12:54:47;;;;;;;12.30;8.10;;;;;;;;;;5048366;28;20037;-59
2024/01/11 12:57:19;;;;;;;10.68;7.35;;;;;;;;;;5048920;28;20352;-59
2024/01/11 12:59:45;;;;;;;10.27;7.38;;;;;;;;;;5047380;28;20507;-61
2024/01/11 13:02:14;;;;;;;7.70;6.18;;;;;;;;;;5048960;28;20398;-60
2024/01/11 13:04:41;;;;;;;6.85;5.20;;;;;;;;;;5048393;28;20039;-60
2024/01/11 13:07:07;;;;;;;6.93;5.03;;;;;;;;;;5047694;28;20033;-61
2024/01/11 13:09:33;;;;;;;4.60;3.90;;;;;;;;;;5047265;28;20089;-61
2024/01/11 13:11:59;;;;;;;4.80;3.88;;;;;;;;;;5047935;28;20053;-60
2024/01/11 13:14:26;;;;;;;4.45;3.83;;;;;;;;;;5047224;28;20482;-60
2024/01/11 13:16:52;;;;;;;5.57;3.30;;;;;;;;;;5048003;28;20128;-60
2024/01/11 13:19:18;;;;;;;3.80;3.20;;;;;;;;;;5048124;28;20047;-60
2024/01/11 13:21:44;;;;;;;6.13;4.05;;;;;;;;;;5046955;28;20049;-60
2024/01/11 13:24:10;;;;;;;6.50;4.32;;;;;;;;;;5048319;28;20041;-60
2024/01/11 13:26:40;;;;;;;7.40;4.70;;;;;;;;;;5047557;28;20384;-61
2024/01/11 13:29:06;;;;;;;4.53;3.45;;;;;;;;;;5038889;28;20114;-60
2024/01/11 13:31:33;;;;;;;4.43;3.50;;;;;;;;;;5047541;28;20874;-61
2024/01/11 13:33:59;;;;;;;4.65;3.65;;;;;;;;;;5047551;28;20060;-60
2024/01/11 13:36:25;;;;;;;3.97;3.05;;;;;;;;;;5046682;28;20128;-61
2024/01/11 13:38:52;;;;;;;3.75;3.03;;;;;;;;;;5047342;28;20537;-60
2024/01/11 13:41:18;;;;;;;3.60;2.95;;;;;;;;;;5044344;28;20041;-60
2024/01/11 13:43:44;;;;;;;2.55;2.20;;;;;;;;;;5037980;28;20110;-61
2024/01/11 13:46:11;;;;;;;3.42;2.78;;;;;;;;;;5033515;28;20060;-60
2024/01/11 13:48:37;;;;;;;3.13;2.40;;;;;;;;;;5039118;28;20049;-61
2024/01/11 13:51:04;;;;;;;4.60;2.80;;;;;;;;;;5041929;28;20407;-60
2024/01/11 13:53:30;;;;;;;2.40;1.90;;;;;;;;;;5028570;28;20036;-61
2024/01/11 13:55:56;;;;;;;3.40;2.40;;;;;;;;;;5044851;28;20040;-60
2024/01/11 13:58:23;;;;;;;2.95;2.63;;;;;;;;;;5046558;28;20044;-60
2024/01/11 14:00:49;;;;;;;2.75;2.30;;;;;;;;;;5046741;28;20129;-60
2024/01/11 14:03:15;;;;;;;2.38;2.08;;;;;;;;;;5046152;28;20079;-60
2024/01/11 14:05:41;;;;;;;2.03;1.83;;;;;;;;;;5046908;28;20491;-61
2024/01/11 14:08:07;;;;;;;2.70;2.15;;;;;;;;;;5046921;28;20047;-60
2024/01/11 14:10:34;;;;;;;4.38;2.83;;;;;;;;;;5046177;28;20085;-61
2024/01/11 14:13:00;;;;;;;3.25;2.50;;;;;;;;;;5046766;28;20029;-60
2024/01/11 14:15:27;;;;;;;3.30;2.80;;;;;;;;;;5028930;28;20041;-60
2024/01/11 14:17:53;;;;;;;3.13;2.15;;;;;;;;;;5046020;28;20043;-60
2024/01/11 14:20:20;;;;;;;3.97;2.60;;;;;;;;;;5046648;28;20072;-61
2024/01/11 14:22:49;;;;;;;3.28;2.50;;;;;;;;;;5040691;28;20037;-61
2024/01/11 14:25:19;;;;;;;2.63;2.00;;;;;;;;;;5042710;28;20405;-60
2024/01/11 14:27:45;;;;;;;2.25;1.95;;;;;;;;;;5038505;28;20052;-61
2024/01/11 14:30:11;;;;;;;2.20;1.88;;;;;;;;;;5034597;28;20061;-60